createdAt,value
2018-12-11T00:00:49.585Z,7.10
2018-12-11T00:03:18.512Z,6.97
2018-12-11T00:05:47.490Z,6.53
2018-12-11T00:08:17.480Z,6.20
2018-12-11T00:10:46.377Z,6.27
2018-12-11T00:13:15.377Z,6.40
2018-12-11T00:15:44.302Z,6.00
2018-12-11T00:18:13.257Z,8.33
2018-12-11T00:20:42.256Z,6.73
2018-12-11T00:23:12.208Z,6.33
2018-12-11T00:25:41.176Z,6.63
2018-12-11T00:28:10.146Z,5.60
2018-12-11T00:30:39.047Z,5.30
2018-12-11T00:33:08.011Z,6.90
2018-12-11T00:35:36.972Z,5.43
2018-12-11T00:38:05.872Z,6.97
2018-12-11T00:40:34.804Z,7.57
2018-12-11T00:43:03.786Z,5.77
2018-12-11T00:45:32.695Z,6.20
2018-12-11T00:48:01.621Z,6.00
2018-12-11T00:50:30.593Z,6.07
2018-12-11T00:52:59.601Z,5.80
2018-12-11T00:55:28.577Z,6.23
2018-12-11T00:57:57.572Z,5.77
2018-12-11T01:00:26.481Z,5.60
2018-12-11T01:02:55.388Z,5.93
2018-12-11T01:05:24.374Z,5.90
2018-12-11T01:07:53.288Z,7.03
2018-12-11T01:10:22.200Z,6.20
2018-12-11T01:12:51.168Z,6.07
2018-12-11T01:15:20.072Z,5.87
2018-12-11T01:17:49.777Z,5.80
2018-12-11T01:20:18.778Z,5.80
2018-12-11T01:22:47.707Z,6.47
2018-12-11T01:25:16.619Z,7.83
2018-12-11T01:27:45.604Z,6.37
2018-12-11T01:30:14.512Z,6.47
2018-12-11T01:32:43.416Z,6.73
2018-12-11T01:35:12.541Z,6.67
2018-12-11T01:37:41.469Z,7.07
2018-12-11T01:40:10.377Z,6.60
2018-12-11T01:42:39.355Z,7.20
2018-12-11T01:45:08.361Z,7.13
2018-12-11T01:47:37.276Z,6.73
2018-12-11T01:50:06.236Z,7.37
2018-12-11T01:52:35.139Z,7.30
2018-12-11T01:55:04.052Z,7.20
2018-12-11T01:57:33.015Z,7.87
2018-12-11T02:00:01.924Z,7.07
2018-12-11T02:02:30.820Z,7.20
2018-12-11T02:04:59.784Z,7.67
2018-12-11T02:07:28.688Z,7.07
2018-12-11T02:09:57.683Z,7.63
2018-12-11T02:12:26.636Z,7.53
2018-12-11T02:14:56.656Z,7.57
2018-12-11T02:17:25.556Z,7.67
2018-12-11T02:19:55.419Z,7.33
2018-12-11T02:22:24.487Z,7.50
2018-12-11T02:24:53.380Z,8.57
2018-12-11T02:27:22.355Z,7.80
2018-12-11T02:29:51.656Z,8.00
2018-12-11T02:32:20.576Z,7.60
2018-12-11T02:34:49.540Z,7.40
2018-12-11T02:37:18.504Z,8.05
2018-12-11T02:39:47.477Z,8.13
2018-12-11T02:42:16.461Z,8.27
2018-12-11T02:44:46.188Z,7.97
2018-12-11T02:47:15.126Z,8.77
2018-12-11T02:49:44.170Z,8.23
2018-12-11T02:52:13.085Z,7.07
2018-12-11T02:54:41.991Z,7.90
2018-12-11T02:57:10.956Z,7.60
2018-12-11T02:59:39.864Z,8.15
2018-12-11T03:02:08.817Z,8.50
2018-12-11T03:04:37.796Z,7.22
2018-12-11T03:07:07.537Z,9.03
2018-12-11T03:09:36.467Z,7.63
2018-12-11T03:12:05.476Z,7.73
2018-12-11T03:14:34.382Z,7.70
2018-12-11T03:17:03.477Z,7.40
2018-12-11T03:19:32.448Z,8.23
2018-12-11T03:22:01.346Z,8.10
2018-12-11T03:24:30.280Z,7.23
2018-12-11T03:26:59.232Z,7.17
2018-12-11T03:29:28.137Z,7.73
2018-12-11T03:31:57.111Z,7.67
2018-12-11T03:34:26.108Z,7.97
2018-12-11T03:36:55.033Z,7.47
2018-12-11T03:39:24.028Z,7.50
2018-12-11T03:41:52.988Z,7.80
2018-12-11T03:44:21.889Z,8.37
2018-12-11T03:46:51.069Z,7.63
2018-12-11T03:49:20.027Z,7.70
2018-12-11T03:51:48.934Z,8.57
2018-12-11T03:54:17.851Z,7.60
2018-12-11T03:56:46.868Z,7.70
2018-12-11T03:59:15.772Z,8.60
2018-12-11T04:01:44.678Z,7.30
2018-12-11T04:04:13.653Z,8.10
2018-12-11T04:06:42.576Z,7.30
2018-12-11T04:09:11.474Z,7.77
2018-12-11T04:11:40.459Z,7.37
2018-12-11T04:14:09.349Z,6.97
2018-12-11T04:16:38.289Z,7.67
2018-12-11T04:19:19.517Z,8.00
2018-12-11T04:21:48.413Z,9.27
2018-12-11T04:24:17.339Z,8.87
2018-12-11T04:26:46.312Z,7.93
2018-12-11T04:29:15.230Z,8.17
2018-12-11T04:31:44.184Z,7.27
2018-12-11T04:34:13.152Z,8.00
2018-12-11T04:36:42.206Z,8.10
2018-12-11T04:39:11.128Z,9.17
2018-12-11T04:41:40.203Z,7.63
2018-12-11T04:44:09.249Z,8.93
2018-12-11T04:46:38.396Z,8.08
2018-12-11T04:49:07.388Z,8.13
2018-12-11T04:51:37.393Z,7.17
2018-12-11T04:54:07.419Z,8.10
2018-12-11T04:56:37.243Z,9.67
2018-12-11T04:59:06.152Z,7.03
2018-12-11T05:01:35.076Z,6.33
2018-12-11T05:04:04.077Z,6.08
2018-12-11T05:06:33.549Z,6.20
2018-12-11T05:09:02.765Z,6.00
2018-12-11T05:11:31.725Z,7.47
2018-12-11T05:14:00.655Z,6.28
2018-12-11T05:16:29.620Z,6.05
2018-12-11T05:18:58.600Z,6.05
2018-12-11T05:21:27.542Z,5.58
2018-12-11T05:23:56.432Z,5.80
2018-12-11T05:26:25.540Z,5.60
2018-12-11T05:28:54.476Z,5.95
2018-12-11T05:31:23.384Z,5.50
2018-12-11T05:33:52.392Z,5.92
2018-12-11T05:36:22.256Z,6.60
2018-12-11T05:38:51.188Z,5.12
2018-12-11T05:41:20.189Z,5.25
2018-12-11T05:43:49.161Z,5.70
2018-12-11T05:46:18.144Z,6.10
2018-12-11T05:48:47.099Z,5.97
2018-12-11T05:51:15.984Z,6.10
2018-12-11T05:53:44.937Z,4.72
2018-12-11T05:56:14.932Z,5.75
2018-12-11T05:59:02.254Z,7.75
2018-12-11T06:01:31.153Z,5.00
2018-12-11T06:04:00.126Z,6.28
2018-12-11T06:06:29.126Z,6.05
2018-12-11T06:08:58.041Z,7.15
2018-12-11T06:11:27.052Z,5.53
2018-12-11T06:13:56.941Z,6.97
2018-12-11T06:16:26.228Z,5.53
2018-12-11T06:18:55.177Z,5.97
2018-12-11T06:21:24.156Z,6.08
2018-12-11T06:23:53.277Z,6.65
2018-12-11T06:26:22.176Z,5.97
2018-12-11T06:28:51.164Z,5.97
2018-12-11T06:31:20.069Z,5.87
2018-12-11T06:33:49.048Z,6.33
2018-12-11T06:36:18.049Z,6.05
2018-12-11T06:38:47.000Z,6.47
2018-12-11T06:41:15.980Z,6.60
2018-12-11T06:43:44.984Z,7.03
2018-12-11T06:46:13.987Z,6.95
2018-12-11T06:48:42.964Z,8.13
2018-12-11T06:51:11.971Z,7.58
2018-12-11T06:53:40.894Z,6.78
2018-12-11T06:56:09.958Z,6.65
2018-12-11T06:58:40.864Z,8.70
2018-12-11T07:01:09.906Z,6.37
2018-12-11T07:03:38.888Z,6.67
2018-12-11T07:06:07.784Z,6.10
2018-12-11T07:08:36.812Z,6.42
2018-12-11T07:11:05.999Z,7.42
2018-12-11T07:13:34.939Z,6.40
2018-12-11T07:16:03.861Z,7.00
2018-12-11T07:18:32.848Z,6.05
2018-12-11T07:21:01.743Z,6.75
2018-12-11T07:23:30.685Z,8.75
2018-12-11T07:25:59.700Z,6.83
2018-12-11T07:28:31.389Z,7.72
2018-12-11T07:31:01.354Z,6.75
2018-12-11T07:33:30.276Z,7.47
2018-12-11T07:35:59.195Z,5.67
2018-12-11T07:38:28.237Z,5.60
2018-12-11T07:40:57.193Z,5.17
2018-12-11T07:43:26.166Z,5.15
2018-12-11T07:45:55.202Z,6.80
2018-12-11T07:48:24.132Z,5.95
2018-12-11T07:50:53.133Z,5.87
2018-12-11T07:53:22.190Z,4.62
2018-12-11T07:55:51.625Z,5.45
2018-12-11T07:58:21.645Z,5.97
2018-12-11T08:00:50.639Z,5.10
2018-12-11T08:03:19.617Z,6.28
2018-12-11T08:05:48.562Z,5.40
2018-12-11T08:08:17.706Z,5.45
2018-12-11T08:10:47.632Z,4.20
2018-12-11T08:13:16.556Z,5.08
2018-12-11T08:15:45.806Z,6.37
2018-12-11T08:18:14.748Z,5.22
2018-12-11T08:20:43.662Z,4.62
2018-12-11T08:23:12.732Z,5.42
2018-12-11T08:25:41.685Z,4.28
2018-12-11T08:28:10.653Z,4.47
2018-12-11T08:30:39.630Z,4.37
2018-12-11T08:33:08.540Z,4.90
2018-12-11T08:35:37.674Z,4.92
2018-12-11T08:38:06.681Z,4.80
2018-12-11T08:40:35.723Z,4.28
2018-12-11T08:43:04.624Z,4.67
2018-12-11T08:45:33.616Z,4.08
2018-12-11T08:48:02.561Z,5.58
2018-12-11T08:50:31.473Z,4.95
2018-12-11T08:53:00.480Z,4.47
2018-12-11T08:55:29.375Z,4.15
2018-12-11T08:57:58.309Z,5.28
2018-12-11T09:00:27.331Z,3.85
2018-12-11T09:02:56.294Z,4.28
2018-12-11T09:05:25.256Z,4.58
2018-12-11T09:07:54.234Z,4.20
2018-12-11T09:10:23.192Z,5.33
2018-12-11T09:12:52.152Z,4.33
2018-12-11T09:15:22.326Z,4.97
2018-12-11T09:17:51.251Z,3.98
2018-12-11T09:20:20.145Z,4.17
2018-12-11T09:22:49.117Z,4.22
2018-12-11T09:25:18.044Z,4.33
2018-12-11T09:27:47.104Z,3.85
2018-12-11T09:30:16.138Z,3.02
2018-12-11T09:32:45.045Z,6.37
2018-12-11T09:35:14.007Z,4.08
2018-12-11T09:37:43.112Z,3.72
2018-12-11T09:40:12.077Z,5.45
2018-12-11T09:42:41.019Z,4.60
2018-12-11T09:45:10.221Z,4.05
2018-12-11T09:47:39.194Z,4.78
2018-12-11T09:50:08.285Z,4.08
2018-12-11T09:52:37.272Z,4.47
2018-12-11T09:55:06.289Z,4.53
2018-12-11T09:57:35.211Z,4.35
2018-12-11T10:00:05.449Z,4.47
2018-12-11T10:02:34.385Z,3.95
2018-12-11T10:05:03.378Z,4.60
2018-12-11T10:07:32.958Z,4.33
2018-12-11T10:10:03.187Z,4.45
2018-12-11T10:12:32.204Z,3.67
2018-12-11T10:15:01.124Z,4.30
2018-12-11T10:17:30.095Z,3.80
2018-12-11T10:19:59.088Z,4.12
2018-12-11T10:22:28.029Z,4.33
2018-12-11T10:24:56.995Z,4.62
2018-12-11T10:27:26.046Z,5.35
2018-12-11T10:29:54.989Z,4.87
2018-12-11T10:32:23.943Z,4.53
2018-12-11T10:34:52.921Z,5.25
2018-12-11T10:37:21.871Z,5.28
2018-12-11T10:39:50.796Z,5.22
2018-12-11T10:42:19.812Z,4.40
2018-12-11T10:44:48.784Z,5.05
2018-12-11T10:47:21.973Z,3.87
2018-12-11T10:49:51.089Z,4.85
2018-12-11T10:52:20.153Z,4.50
2018-12-11T10:54:49.108Z,5.62
2018-12-11T10:57:18.166Z,4.50
2018-12-11T10:59:47.219Z,4.58
2018-12-11T11:02:23.211Z,4.75
2018-12-11T11:04:53.406Z,5.22
2018-12-11T11:07:22.351Z,5.33
2018-12-11T11:09:51.395Z,3.80
2018-12-11T11:12:20.531Z,4.58
2018-12-11T11:14:49.551Z,4.03
2018-12-11T11:17:19.020Z,4.40
2018-12-11T11:19:48.617Z,3.87
2018-12-11T11:22:17.646Z,5.12
2018-12-11T11:24:53.748Z,5.20
2018-12-11T11:27:22.729Z,4.05
2018-12-11T11:29:51.959Z,3.45
2018-12-11T11:32:22.048Z,4.70
2018-12-11T11:34:51.159Z,4.97
2018-12-11T11:37:20.133Z,8.08
2018-12-11T11:39:49.243Z,5.97
2018-12-11T11:42:19.384Z,5.58
2018-12-11T11:44:48.484Z,5.40
2018-12-11T11:47:17.601Z,5.00
2018-12-11T11:49:46.509Z,4.53
2018-12-11T11:52:15.484Z,4.42
2018-12-11T11:54:44.481Z,3.72
2018-12-11T11:57:13.452Z,5.20
2018-12-11T11:59:42.392Z,3.85
2018-12-11T12:02:11.397Z,4.28
2018-12-11T12:04:40.310Z,6.42
2018-12-11T12:07:10.069Z,5.25
2018-12-11T12:09:39.046Z,4.05
2018-12-11T12:12:08.051Z,4.45
2018-12-11T12:14:37.016Z,4.47
2018-12-11T12:17:06.369Z,4.47
2018-12-11T12:19:35.479Z,5.25
2018-12-11T12:22:04.556Z,5.70
2018-12-11T12:24:33.554Z,4.15
2018-12-11T12:27:02.485Z,4.80
2018-12-11T12:29:31.599Z,4.03
2018-12-11T12:32:00.604Z,3.45
2018-12-11T12:34:29.561Z,4.00
2018-12-11T12:36:58.535Z,4.62
2018-12-11T12:39:27.529Z,3.33
2018-12-11T12:41:56.495Z,4.60
2018-12-11T12:44:25.473Z,3.87
2018-12-11T12:46:54.521Z,3.90
2018-12-11T12:49:23.476Z,5.30
2018-12-11T12:51:52.524Z,5.22
2018-12-11T12:54:21.576Z,5.03
2018-12-11T12:56:50.553Z,4.15
2018-12-11T12:59:19.617Z,4.62
2018-12-11T13:01:48.774Z,9.23
2018-12-11T13:04:18.060Z,3.95
2018-12-11T13:06:47.327Z,4.00
2018-12-11T13:09:16.601Z,4.33
2018-12-11T13:11:45.710Z,5.12
2018-12-11T13:14:15.062Z,3.65
2018-12-11T13:16:44.712Z,7.33
2018-12-11T13:19:13.829Z,4.05
2018-12-11T13:21:43.044Z,2.80
2018-12-11T13:24:12.689Z,4.37
2018-12-11T13:26:41.808Z,3.83
2018-12-11T13:29:13.726Z,5.08
2018-12-11T13:31:43.411Z,4.12
2018-12-11T13:34:14.025Z,4.80
2018-12-11T13:36:43.676Z,4.00
2018-12-11T13:39:12.705Z,3.80
2018-12-11T13:41:41.855Z,9.50
2018-12-11T13:44:10.856Z,5.42
2018-12-11T13:46:40.144Z,4.47
2018-12-11T13:49:09.273Z,5.95
2018-12-11T13:51:38.766Z,4.10
2018-12-11T13:54:08.513Z,4.22
2018-12-11T13:56:38.390Z,4.90
2018-12-11T13:59:07.416Z,5.20
2018-12-11T14:01:37.089Z,5.22
2018-12-11T14:04:06.309Z,4.83
2018-12-11T14:06:35.965Z,3.70
2018-12-11T14:10:08.676Z,8.55
2018-12-11T14:12:38.249Z,5.45
2018-12-11T14:15:09.156Z,4.08
2018-12-11T14:17:38.070Z,4.72
2018-12-11T14:20:07.466Z,5.67
2018-12-11T14:22:38.833Z,4.37
2018-12-11T14:25:07.898Z,4.87
2018-12-11T14:27:36.956Z,5.60
2018-12-11T14:30:10.982Z,5.62
2018-12-11T14:32:38.740Z,5.42
2018-12-11T14:35:07.839Z,5.08
2018-12-11T14:37:36.918Z,8.53
2018-12-11T14:40:05.921Z,6.08
2018-12-11T14:42:34.918Z,7.67
2018-12-11T14:45:03.990Z,6.40
2018-12-11T14:47:32.915Z,10.55
2018-12-11T14:50:01.954Z,9.20
2018-12-11T14:52:31.167Z,7.67
2018-12-11T14:55:00.116Z,5.85
2018-12-11T14:57:31.404Z,7.30
2018-12-11T15:00:00.166Z,6.95
2018-12-11T15:02:29.579Z,9.38
2018-12-11T15:04:58.723Z,6.12
2018-12-11T15:07:27.850Z,6.92
2018-12-11T15:09:56.842Z,10.30
2018-12-11T15:12:25.836Z,7.65
2018-12-11T15:14:54.748Z,11.50
2018-12-11T15:17:23.926Z,7.62
2018-12-11T15:19:53.237Z,9.65
2018-12-11T15:22:22.320Z,9.03
2018-12-11T15:24:51.392Z,7.50
2018-12-11T15:27:20.378Z,8.60
2018-12-11T15:29:49.327Z,9.80
2018-12-11T15:32:18.346Z,9.93
2018-12-11T15:34:47.341Z,9.10
2018-12-11T15:37:16.592Z,11.25
2018-12-11T15:39:45.647Z,9.38
2018-12-11T15:42:14.755Z,11.57
2018-12-11T15:44:43.776Z,13.70
2018-12-11T15:47:13.636Z,11.30
2018-12-11T15:49:42.860Z,9.55
2018-12-11T15:52:12.012Z,12.25
2018-12-11T15:54:41.050Z,11.60
2018-12-11T15:57:10.268Z,8.48
2018-12-11T15:59:39.433Z,9.48
2018-12-11T16:02:10.450Z,8.15
2018-12-11T16:04:41.422Z,8.60
2018-12-11T16:07:11.372Z,8.78
2018-12-11T16:09:42.168Z,8.07
2018-12-11T16:12:12.193Z,7.30
2018-12-11T16:14:41.181Z,8.15
2018-12-11T16:17:10.159Z,10.50
2018-12-11T16:19:39.194Z,10.18
2018-12-11T16:22:09.165Z,9.68
2018-12-11T16:24:39.098Z,9.13
2018-12-11T16:27:09.034Z,9.90
2018-12-11T16:29:39.317Z,10.33
2018-12-11T16:32:09.017Z,8.53
2018-12-11T16:34:37.960Z,10.70
2018-12-11T16:37:07.064Z,10.38
2018-12-11T16:39:48.460Z,10.27
2018-12-11T16:42:17.542Z,9.53
2018-12-11T16:44:46.808Z,9.47
2018-12-11T16:47:15.905Z,8.60
2018-12-11T16:49:44.994Z,9.25
2018-12-11T16:52:13.931Z,8.60
2018-12-11T16:54:42.954Z,8.40
2018-12-11T16:57:11.939Z,8.30
2018-12-11T16:59:40.888Z,8.83
2018-12-11T17:02:09.877Z,10.88
2018-12-11T17:04:38.797Z,9.97
2018-12-11T17:07:07.804Z,10.03
2018-12-11T17:09:38.984Z,9.93
2018-12-11T17:12:08.232Z,9.60
2018-12-11T17:14:37.132Z,9.23
2018-12-11T17:17:06.248Z,9.93
2018-12-11T17:19:35.176Z,10.20
2018-12-11T17:22:04.397Z,10.58
2018-12-11T17:24:33.399Z,10.63
2018-12-11T17:27:02.603Z,9.73
2018-12-11T17:29:31.527Z,12.05
2018-12-11T17:32:00.525Z,10.03
2018-12-11T17:34:29.472Z,10.40
2018-12-11T17:36:58.441Z,11.70
2018-12-11T17:39:27.526Z,10.40
2018-12-11T17:41:56.450Z,12.40
2018-12-11T17:44:25.399Z,12.50
2018-12-11T17:46:55.333Z,12.77
2018-12-11T17:49:24.289Z,10.98
2018-12-11T17:51:53.542Z,11.45
2018-12-11T17:54:23.498Z,12.17
2018-12-11T17:56:52.866Z,11.00
2018-12-11T17:59:23.555Z,11.63
2018-12-11T18:01:56.894Z,12.27
2018-12-11T18:04:25.919Z,11.57
2018-12-11T18:06:54.845Z,11.07
2018-12-11T18:09:23.754Z,10.90
2018-12-11T18:11:52.765Z,10.03
2018-12-11T18:14:21.690Z,9.40
2018-12-11T18:16:51.664Z,9.00
2018-12-11T18:19:20.651Z,9.03
2018-12-11T18:21:49.566Z,10.40
2018-12-11T18:24:18.537Z,10.07
2018-12-11T18:26:47.809Z,9.77
2018-12-11T18:29:16.729Z,10.93
2018-12-11T18:31:45.634Z,11.40
2018-12-11T18:34:15.398Z,9.87
2018-12-11T18:36:44.368Z,13.25
2018-12-11T18:39:13.445Z,11.10
2018-12-11T18:41:43.392Z,9.53
2018-12-11T18:44:12.570Z,11.08
2018-12-11T18:46:41.843Z,10.95
2018-12-11T18:49:11.097Z,11.67
2018-12-11T18:51:40.209Z,10.10
2018-12-11T18:54:09.281Z,11.05
2018-12-11T18:56:38.538Z,11.07
2018-12-11T18:59:07.448Z,10.63
2018-12-11T19:01:36.420Z,10.50
2018-12-11T19:04:05.505Z,12.70
2018-12-11T19:06:34.559Z,11.73
2018-12-11T19:09:05.888Z,10.20
2018-12-11T19:11:35.342Z,11.37
2018-12-11T19:14:04.662Z,11.80
2018-12-11T19:16:33.628Z,12.13
2018-12-11T19:19:02.841Z,10.80
2018-12-11T19:21:31.798Z,11.33
2018-12-11T19:24:12.005Z,10.60
2018-12-11T19:26:41.521Z,11.50
2018-12-11T19:29:10.691Z,11.77
2018-12-11T19:31:39.704Z,10.10
2018-12-11T19:34:08.755Z,11.00
2018-12-11T19:36:37.883Z,12.20
2018-12-11T19:39:09.999Z,11.73
2018-12-11T19:41:39.096Z,10.63
2018-12-11T19:44:08.992Z,11.27
2018-12-11T19:46:38.236Z,10.80
2018-12-11T19:49:07.218Z,12.37
2018-12-11T19:51:36.180Z,10.73
2018-12-11T19:54:05.236Z,11.57
2018-12-11T19:56:34.190Z,12.18
2018-12-11T19:59:03.961Z,12.63
2018-12-11T20:01:33.552Z,11.50
2018-12-11T20:04:02.535Z,11.60
2018-12-11T20:06:31.473Z,14.13
2018-12-11T20:09:00.487Z,11.43
2018-12-11T20:11:29.533Z,10.67
2018-12-11T20:13:59.436Z,10.87
2018-12-11T20:16:28.783Z,11.17
2018-12-11T20:18:57.710Z,10.93
2018-12-11T20:21:26.641Z,12.23
2018-12-11T20:23:55.669Z,10.90
2018-12-11T20:26:24.802Z,12.63
2018-12-11T20:28:54.698Z,11.37
2018-12-11T20:31:23.695Z,12.93
2018-12-11T20:33:52.628Z,10.03
2018-12-11T20:36:21.552Z,12.28
2018-12-11T20:38:50.637Z,10.80
2018-12-11T20:41:19.634Z,10.87
2018-12-11T20:43:48.568Z,10.57
2018-12-11T20:46:17.545Z,11.73
2018-12-11T20:48:46.554Z,11.07
2018-12-11T20:51:15.494Z,9.97
2018-12-11T20:53:44.481Z,9.70
2018-12-11T20:56:13.403Z,11.13
2018-12-11T20:58:42.404Z,12.23
2018-12-11T21:01:11.400Z,9.03
2018-12-11T21:03:40.355Z,10.37
2018-12-11T21:06:09.272Z,10.55
2018-12-11T21:08:38.272Z,9.40
2018-12-11T21:11:07.188Z,9.98
2018-12-11T21:13:36.095Z,8.93
2018-12-11T21:16:10.844Z,9.23
2018-12-11T21:18:36.596Z,10.32
2018-12-11T21:21:06.596Z,8.90
2018-12-11T21:23:35.557Z,8.15
2018-12-11T21:26:04.485Z,10.00
2018-12-11T21:28:33.538Z,9.70
2018-12-11T21:31:02.525Z,8.78
2018-12-11T21:33:31.480Z,8.90
2018-12-11T21:36:00.453Z,8.30
2018-12-11T21:38:29.353Z,9.08
2018-12-11T21:40:58.264Z,9.05
2018-12-11T21:43:27.248Z,9.08
2018-12-11T21:45:56.181Z,7.97
2018-12-11T21:48:25.075Z,7.92
2018-12-11T21:50:54.041Z,8.23
2018-12-11T21:53:22.941Z,7.35
2018-12-11T21:55:51.885Z,7.30
2018-12-11T21:58:20.854Z,7.65
2018-12-11T22:00:49.836Z,6.92
2018-12-11T22:03:18.968Z,7.00
2018-12-11T22:05:49.075Z,7.28
2018-12-11T22:08:18.166Z,7.20
2018-12-11T22:10:47.107Z,6.62
2018-12-11T22:13:16.104Z,7.17
2018-12-11T22:15:45.016Z,7.72
2018-12-11T22:18:13.904Z,8.15
2018-12-11T22:20:42.879Z,6.67
2018-12-11T22:23:11.776Z,7.67
2018-12-11T22:25:40.672Z,7.30
2018-12-11T22:28:09.652Z,6.58
2018-12-11T22:30:38.589Z,6.53
2018-12-11T22:33:07.601Z,6.87
2018-12-11T22:35:36.576Z,6.80
2018-12-11T22:38:05.467Z,6.72
2018-12-11T22:40:34.391Z,6.55
2018-12-11T22:43:03.893Z,7.90
2018-12-11T22:45:32.817Z,6.72
2018-12-11T22:48:01.721Z,6.42
2018-12-11T22:50:30.703Z,6.90
2018-12-11T22:52:59.613Z,7.92
2018-12-11T22:55:28.528Z,7.62
2018-12-11T22:57:57.507Z,6.62
2018-12-11T23:00:26.541Z,6.55
2018-12-11T23:02:55.441Z,6.45
2018-12-11T23:05:24.445Z,6.95
2018-12-11T23:07:53.385Z,6.25
2018-12-11T23:10:22.286Z,6.87
2018-12-11T23:12:51.277Z,5.70
2018-12-11T23:15:20.177Z,5.87
2018-12-11T23:17:49.075Z,6.28
2018-12-11T23:20:18.068Z,6.80
2018-12-11T23:22:46.957Z,7.37
2018-12-11T23:25:15.873Z,7.72
2018-12-11T23:27:44.836Z,5.53
2018-12-11T23:30:13.747Z,6.20
2018-12-11T23:32:42.650Z,5.80
2018-12-11T23:35:11.700Z,6.07
2018-12-11T23:37:40.612Z,7.43
2018-12-11T23:40:10.488Z,6.72
2018-12-11T23:42:39.472Z,5.90
2018-12-11T23:45:08.718Z,5.97
2018-12-11T23:47:37.844Z,6.60
2018-12-11T23:50:07.108Z,6.00
2018-12-11T23:52:36.014Z,6.10
2018-12-11T23:55:05.233Z,6.20
2018-12-11T23:57:34.216Z,5.67
